sensor_id;sensor_type;location;lat;lon;timestamp;pressure;altitude;pressure_sealevel;temperature;humidity
62051;BME280;48008;51.204;6.766;2023-02-25T00:00:33;100159.47;;;3.79;97.47
62051;BME280;48008;51.204;6.766;2023-02-25T00:03:01;100162.03;;;3.90;97.36
62051;BME280;48008;51.204;6.766;2023-02-25T00:05:27;100162.16;;;3.89;96.89
62051;BME280;48008;51.204;6.766;2023-02-25T00:07:57;100164.56;;;3.92;96.76
62051;BME280;48008;51.204;6.766;2023-02-25T00:10:24;100168.69;;;3.94;97.48
62051;BME280;48008;51.204;6.766;2023-02-25T00:12:51;100171.84;;;3.88;97.19
62051;BME280;48008;51.204;6.766;2023-02-25T00:15:18;100182.53;;;3.96;97.68
62051;BME280;48008;51.204;6.766;2023-02-25T00:17:44;100173.94;;;3.94;97.10
62051;BME280;48008;51.204;6.766;2023-02-25T00:20:11;100169.28;;;3.98;97.27
62051;BME280;48008;51.204;6.766;2023-02-25T00:22:39;100162.28;;;3.87;97.48
62051;BME280;48008;51.204;6.766;2023-02-25T00:25:06;100160.06;;;3.82;97.26
62051;BME280;48008;51.204;6.766;2023-02-25T00:27:35;100164.59;;;3.80;97.48
62051;BME280;48008;51.204;6.766;2023-02-25T00:30:03;100165.31;;;3.82;97.38
62051;BME280;48008;51.204;6.766;2023-02-25T00:32:30;100158.97;;;3.85;97.62
62051;BME280;48008;51.204;6.766;2023-02-25T00:34:57;100160.72;;;3.96;96.22
62051;BME280;48008;51.204;6.766;2023-02-25T00:37:24;100164.66;;;3.90;96.14
62051;BME280;48008;51.204;6.766;2023-02-25T00:39:51;100161.59;;;3.85;96.58
62051;BME280;48008;51.204;6.766;2023-02-25T00:42:18;100155.75;;;3.81;96.72
62051;BME280;48008;51.204;6.766;2023-02-25T00:44:47;100152.81;;;3.75;97.06
62051;BME280;48008;51.204;6.766;2023-02-25T00:47:17;100153.13;;;3.81;96.25
62051;BME280;48008;51.204;6.766;2023-02-25T00:49:45;100150.19;;;3.75;95.77
62051;BME280;48008;51.204;6.766;2023-02-25T00:52:13;100164.25;;;3.74;96.02
62051;BME280;48008;51.204;6.766;2023-02-25T00:54:40;100164.75;;;3.68;96.33
62051;BME280;48008;51.204;6.766;2023-02-25T00:57:07;100162.50;;;3.63;95.67
62051;BME280;48008;51.204;6.766;2023-02-25T00:59:34;100160.97;;;3.60;96.10
62051;BME280;48008;51.204;6.766;2023-02-25T01:02:01;100161.53;;;3.53;95.68
62051;BME280;48008;51.204;6.766;2023-02-25T01:04:28;100164.66;;;3.58;95.84
62051;BME280;48008;51.204;6.766;2023-02-25T01:06:55;100162.13;;;3.56;95.65
62051;BME280;48008;51.204;6.766;2023-02-25T01:09:22;100162.84;;;3.58;95.67
62051;BME280;48008;51.204;6.766;2023-02-25T01:11:49;100163.44;;;3.62;95.92
62051;BME280;48008;51.204;6.766;2023-02-25T01:14:19;100160.53;;;3.76;95.52
62051;BME280;48008;51.204;6.766;2023-02-25T01:16:47;100162.50;;;3.63;94.89
62051;BME280;48008;51.204;6.766;2023-02-25T01:19:19;100166.91;;;3.62;95.79
62051;BME280;48008;51.204;6.766;2023-02-25T01:21:49;100163.31;;;3.63;95.30
62051;BME280;48008;51.204;6.766;2023-02-25T01:24:20;100162.63;;;3.50;95.94
62051;BME280;48008;51.204;6.766;2023-02-25T01:26:50;100164.44;;;3.50;96.36
62051;BME280;48008;51.204;6.766;2023-02-25T01:29:22;100162.28;;;3.55;94.91
62051;BME280;48008;51.204;6.766;2023-02-25T01:31:51;100164.75;;;3.56;95.55
62051;BME280;48008;51.204;6.766;2023-02-25T01:34:19;100169.88;;;3.58;95.41
62051;BME280;48008;51.204;6.766;2023-02-25T01:36:46;100167.16;;;3.59;95.38
62051;BME280;48008;51.204;6.766;2023-02-25T01:39:14;100171.19;;;3.63;95.54
62051;BME280;48008;51.204;6.766;2023-02-25T01:41:41;100178.09;;;3.64;95.32
62051;BME280;48008;51.204;6.766;2023-02-25T01:44:14;100175.59;;;3.63;94.54
62051;BME280;48008;51.204;6.766;2023-02-25T01:46:46;100171.69;;;3.57;94.24
62051;BME280;48008;51.204;6.766;2023-02-25T01:49:19;100178.47;;;3.60;94.10
62051;BME280;48008;51.204;6.766;2023-02-25T01:51:49;100179.44;;;3.59;94.50
62051;BME280;48008;51.204;6.766;2023-02-25T01:54:18;100178.97;;;3.54;95.00
62051;BME280;48008;51.204;6.766;2023-02-25T01:56:50;100171.34;;;3.51;94.79
62051;BME280;48008;51.204;6.766;2023-02-25T01:59:20;100173.72;;;3.54;95.25
62051;BME280;48008;51.204;6.766;2023-02-25T02:01:48;100183.00;;;3.58;95.10
62051;BME280;48008;51.204;6.766;2023-02-25T02:04:15;100176.31;;;3.65;94.96
62051;BME280;48008;51.204;6.766;2023-02-25T02:06:46;100179.88;;;3.75;94.64
62051;BME280;48008;51.204;6.766;2023-02-25T02:09:18;100178.34;;;3.61;93.51
62051;BME280;48008;51.204;6.766;2023-02-25T02:11:45;100170.97;;;3.55;94.25
62051;BME280;48008;51.204;6.766;2023-02-25T02:14:16;100172.16;;;3.62;93.92
62051;BME280;48008;51.204;6.766;2023-02-25T02:17:09;100173.72;;;3.54;93.94
62051;BME280;48008;51.204;6.766;2023-02-25T02:20:23;100173.47;;;3.57;94.21
62051;BME280;48008;51.204;6.766;2023-02-25T02:22:46;100163.97;;;3.44;94.31
62051;BME280;48008;51.204;6.766;2023-02-25T02:25:46;100171.00;;;3.44;94.85
62051;BME280;48008;51.204;6.766;2023-02-25T02:28:41;100178.03;;;3.55;94.38
62051;BME280;48008;51.204;6.766;2023-02-25T02:34:35;100181.34;;;3.57;94.68
62051;BME280;48008;51.204;6.766;2023-02-25T02:37:28;100184.09;;;3.55;93.96
62051;BME280;48008;51.204;6.766;2023-02-25T02:46:13;100170.00;;;3.56;94.82
62051;BME280;48008;51.204;6.766;2023-02-25T02:48:50;100174.06;;;3.60;95.21
62051;BME280;48008;51.204;6.766;2023-02-25T02:51:23;100172.97;;;3.63;94.69
62051;BME280;48008;51.204;6.766;2023-02-25T02:53:55;100170.28;;;3.53;95.25
62051;BME280;48008;51.204;6.766;2023-02-25T02:56:24;100169.19;;;3.56;93.85
62051;BME280;48008;51.204;6.766;2023-02-25T02:58:57;100179.09;;;3.52;94.55
62051;BME280;48008;51.204;6.766;2023-02-25T03:01:29;100172.78;;;3.55;94.89
62051;BME280;48008;51.204;6.766;2023-02-25T03:04:01;100172.31;;;3.50;94.77
62051;BME280;48008;51.204;6.766;2023-02-25T03:06:32;100175.88;;;3.49;95.02
62051;BME280;48008;51.204;6.766;2023-02-25T03:09:06;100174.44;;;3.56;94.55
62051;BME280;48008;51.204;6.766;2023-02-25T03:11:34;100183.34;;;3.64;94.04
62051;BME280;48008;51.204;6.766;2023-02-25T03:14:01;100175.50;;;3.53;94.04
62051;BME280;48008;51.204;6.766;2023-02-25T03:16:36;100175.03;;;3.48;94.38
62051;BME280;48008;51.204;6.766;2023-02-25T03:19:07;100178.59;;;3.47;95.00
62051;BME280;48008;51.204;6.766;2023-02-25T03:21:41;100182.28;;;3.56;93.67
62051;BME280;48008;51.204;6.766;2023-02-25T03:24:14;100188.25;;;3.58;94.22
62051;BME280;48008;51.204;6.766;2023-02-25T03:26:43;100192.88;;;3.65;94.45
62051;BME280;48008;51.204;6.766;2023-02-25T03:29:18;100188.69;;;3.74;94.13
62051;BME280;48008;51.204;6.766;2023-02-25T03:31:52;100189.19;;;3.68;93.75
62051;BME280;48008;51.204;6.766;2023-02-25T03:34:27;100189.91;;;3.70;93.32
62051;BME280;48008;51.204;6.766;2023-02-25T03:36:59;100196.22;;;3.68;93.54
62051;BME280;48008;51.204;6.766;2023-02-25T03:39:37;100187.31;;;3.59;93.06
62051;BME280;48008;51.204;6.766;2023-02-25T03:42:09;100194.56;;;3.67;92.99
62051;BME280;48008;51.204;6.766;2023-02-25T03:44:45;100198.38;;;3.62;93.29
62051;BME280;48008;51.204;6.766;2023-02-25T03:47:14;100201.00;;;3.62;93.72
62051;BME280;48008;51.204;6.766;2023-02-25T03:49:49;100199.09;;;3.64;94.00
62051;BME280;48008;51.204;6.766;2023-02-25T03:52:20;100196.81;;;3.60;93.27
62051;BME280;48008;51.204;6.766;2023-02-25T03:54:51;100201.94;;;3.61;93.79
62051;BME280;48008;51.204;6.766;2023-02-25T03:57:19;100201.38;;;3.58;93.89
62051;BME280;48008;51.204;6.766;2023-02-25T03:59:52;100201.59;;;3.66;93.14
62051;BME280;48008;51.204;6.766;2023-02-25T04:02:25;100194.59;;;3.55;93.33
62051;BME280;48008;51.204;6.766;2023-02-25T04:04:53;100199.13;;;3.53;93.97
62051;BME280;48008;51.204;6.766;2023-02-25T04:07:20;100204.72;;;3.49;93.50
62051;BME280;48008;51.204;6.766;2023-02-25T04:09:48;100201.94;;;3.61;93.34
62051;BME280;48008;51.204;6.766;2023-02-25T04:12:14;100199.69;;;3.68;92.37
62051;BME280;48008;51.204;6.766;2023-02-25T04:14:42;100205.88;;;3.67;93.57
62051;BME280;48008;51.204;6.766;2023-02-25T04:17:08;100215.66;;;3.65;92.77
62051;BME280;48008;51.204;6.766;2023-02-25T04:19:37;100206.81;;;3.77;92.87
62051;BME280;48008;51.204;6.766;2023-02-25T04:22:03;100215.44;;;3.68;92.84
62051;BME280;48008;51.204;6.766;2023-02-25T04:24:33;100224.81;;;3.71;92.77
62051;BME280;48008;51.204;6.766;2023-02-25T04:27:00;100231.03;;;3.81;93.10
62051;BME280;48008;51.204;6.766;2023-02-25T04:29:28;100227.56;;;3.69;92.45
62051;BME280;48008;51.204;6.766;2023-02-25T04:31:56;100225.22;;;3.66;92.57
62051;BME280;48008;51.204;6.766;2023-02-25T04:34:23;100225.81;;;3.70;94.16
62051;BME280;48008;51.204;6.766;2023-02-25T04:36:50;100224.59;;;3.74;93.42
62051;BME280;48008;51.204;6.766;2023-02-25T04:39:18;100220.28;;;3.73;93.36
62051;BME280;48008;51.204;6.766;2023-02-25T04:41:44;100218.25;;;3.76;93.82
62051;BME280;48008;51.204;6.766;2023-02-25T04:44:11;100219.69;;;3.69;93.22
62051;BME280;48008;51.204;6.766;2023-02-25T04:46:40;100221.28;;;3.60;93.65
62051;BME280;48008;51.204;6.766;2023-02-25T04:49:08;100220.66;;;3.68;93.73
62051;BME280;48008;51.204;6.766;2023-02-25T04:51:37;100215.31;;;3.70;94.27
62051;BME280;48008;51.204;6.766;2023-02-25T04:54:05;100217.06;;;3.80;93.52
62051;BME280;48008;51.204;6.766;2023-02-25T04:56:48;100215.91;;;3.73;92.82
62051;BME280;48008;51.204;6.766;2023-02-25T04:59:15;100221.34;;;3.81;92.42
62051;BME280;48008;51.204;6.766;2023-02-25T05:01:42;100215.41;;;3.79;92.00
62051;BME280;48008;51.204;6.766;2023-02-25T05:04:08;100228.63;;;3.78;92.93
62051;BME280;48008;51.204;6.766;2023-02-25T05:06:35;100221.63;;;3.67;93.42
62051;BME280;48008;51.204;6.766;2023-02-25T05:09:02;100224.25;;;3.78;93.53
62051;BME280;48008;51.204;6.766;2023-02-25T05:11:29;100224.13;;;3.69;93.17
62051;BME280;48008;51.204;6.766;2023-02-25T05:13:56;100217.94;;;3.70;93.07
62051;BME280;48008;51.204;6.766;2023-02-25T05:16:24;100225.53;;;3.73;93.64
62051;BME280;48008;51.204;6.766;2023-02-25T05:18:51;100221.03;;;3.63;93.54
62051;BME280;48008;51.204;6.766;2023-02-25T05:21:21;100221.03;;;3.75;94.29
62051;BME280;48008;51.204;6.766;2023-02-25T05:23:49;100220.66;;;3.68;93.21
62051;BME280;48008;51.204;6.766;2023-02-25T05:26:18;100215.91;;;3.62;93.54
62051;BME280;48008;51.204;6.766;2023-02-25T05:28:49;100221.63;;;3.67;93.85
62051;BME280;48008;51.204;6.766;2023-02-25T05:31:16;100216.13;;;3.70;93.55
62051;BME280;48008;51.204;6.766;2023-02-25T05:33:43;100219.25;;;3.64;93.54
62051;BME280;48008;51.204;6.766;2023-02-25T05:36:12;100220.91;;;3.65;93.26
62051;BME280;48008;51.204;6.766;2023-02-25T05:38:40;100230.78;;;3.84;92.60
62051;BME280;48008;51.204;6.766;2023-02-25T05:41:07;100227.91;;;3.76;94.05
62051;BME280;48008;51.204;6.766;2023-02-25T05:43:36;100228.03;;;3.74;93.25
62051;BME280;48008;51.204;6.766;2023-02-25T05:46:03;100225.19;;;3.77;94.20
62051;BME280;48008;51.204;6.766;2023-02-25T05:48:31;100234.97;;;3.75;94.03
62051;BME280;48008;51.204;6.766;2023-02-25T05:51:00;100237.22;;;3.80;92.65
62051;BME280;48008;51.204;6.766;2023-02-25T05:53:28;100222.56;;;3.77;92.86
62051;BME280;48008;51.204;6.766;2023-02-25T05:55:55;100231.38;;;3.76;92.56
62051;BME280;48008;51.204;6.766;2023-02-25T05:58:22;100222.78;;;3.74;92.73
62051;BME280;48008;51.204;6.766;2023-02-25T06:00:48;100232.09;;;3.67;92.35
62051;BME280;48008;51.204;6.766;2023-02-25T06:03:15;100226.50;;;3.72;93.35
62051;BME280;48008;51.204;6.766;2023-02-25T06:05:42;100244.50;;;3.65;92.57
62051;BME280;48008;51.204;6.766;2023-02-25T06:08:11;100239.63;;;3.72;92.54
62051;BME280;48008;51.204;6.766;2023-02-25T06:10:38;100242.88;;;3.64;92.62
62051;BME280;48008;51.204;6.766;2023-02-25T06:13:07;100235.78;;;3.76;92.43
62051;BME280;48008;51.204;6.766;2023-02-25T06:15:38;100232.38;;;3.64;92.85
62051;BME280;48008;51.204;6.766;2023-02-25T06:18:06;100239.50;;;3.62;93.16
62051;BME280;48008;51.204;6.766;2023-02-25T06:20:33;100247.03;;;3.67;93.27
62051;BME280;48008;51.204;6.766;2023-02-25T06:23:01;100248.47;;;3.59;93.01
62051;BME280;48008;51.204;6.766;2023-02-25T06:25:28;100247.84;;;3.67;93.04
62051;BME280;48008;51.204;6.766;2023-02-25T06:27:58;100247.16;;;3.54;92.98
62051;BME280;48008;51.204;6.766;2023-02-25T06:30:27;100249.53;;;3.45;93.38
62051;BME280;48008;51.204;6.766;2023-02-25T06:32:54;100259.19;;;3.56;93.49
62051;BME280;48008;51.204;6.766;2023-02-25T06:35:21;100260.97;;;3.67;92.95
62051;BME280;48008;51.204;6.766;2023-02-25T06:37:54;100265.72;;;3.62;92.65
62051;BME280;48008;51.204;6.766;2023-02-25T06:40:21;100266.22;;;3.56;93.38
62051;BME280;48008;51.204;6.766;2023-02-25T06:42:48;100265.88;;;3.60;93.05
62051;BME280;48008;51.204;6.766;2023-02-25T06:45:15;100262.88;;;3.65;92.41
62051;BME280;48008;51.204;6.766;2023-02-25T06:47:41;100269.81;;;3.66;92.96
62051;BME280;48008;51.204;6.766;2023-02-25T06:50:09;100271.22;;;3.70;92.47
62051;BME280;48008;51.204;6.766;2023-02-25T06:52:35;100281.72;;;3.70;92.46
62051;BME280;48008;51.204;6.766;2023-02-25T06:55:03;100282.91;;;3.66;91.82
62051;BME280;48008;51.204;6.766;2023-02-25T06:57:33;100284.31;;;3.81;91.93
62051;BME280;48008;51.204;6.766;2023-02-25T07:00:00;100281.59;;;3.72;92.08
62051;BME280;48008;51.204;6.766;2023-02-25T07:02:26;100289.59;;;3.70;91.89
62051;BME280;48008;51.204;6.766;2023-02-25T07:04:53;100288.41;;;3.63;92.16
62051;BME280;48008;51.204;6.766;2023-02-25T07:07:21;100293.06;;;3.59;92.07
62051;BME280;48008;51.204;6.766;2023-02-25T07:09:47;100287.06;;;3.80;92.43
62051;BME280;48008;51.204;6.766;2023-02-25T07:12:14;100287.78;;;3.71;91.95
62051;BME280;48008;51.204;6.766;2023-02-25T07:14:41;100292.56;;;3.77;91.74
62051;BME280;48008;51.204;6.766;2023-02-25T07:17:08;100294.94;;;3.80;91.57
62051;BME280;48008;51.204;6.766;2023-02-25T07:19:35;100300.44;;;3.88;91.97
62051;BME280;48008;51.204;6.766;2023-02-25T07:22:02;100301.75;;;3.82;91.24
62051;BME280;48008;51.204;6.766;2023-02-25T07:24:28;100306.03;;;3.83;91.29
62051;BME280;48008;51.204;6.766;2023-02-25T07:26:55;100301.47;;;3.85;91.33
62051;BME280;48008;51.204;6.766;2023-02-25T07:29:22;100302.47;;;3.84;90.90
62051;BME280;48008;51.204;6.766;2023-02-25T07:31:49;100298.75;;;3.98;92.01
62051;BME280;48008;51.204;6.766;2023-02-25T07:34:15;100298.16;;;3.95;90.40
62051;BME280;48008;51.204;6.766;2023-02-25T07:36:42;100299.56;;;3.99;90.44
62051;BME280;48008;51.204;6.766;2023-02-25T07:39:10;100298.84;;;4.08;90.26
62051;BME280;48008;51.204;6.766;2023-02-25T07:41:37;100293.72;;;4.07;89.92
62051;BME280;48008;51.204;6.766;2023-02-25T07:44:05;100296.09;;;4.10;90.42
62051;BME280;48008;51.204;6.766;2023-02-25T07:46:32;100299.06;;;4.05;90.46
62051;BME280;48008;51.204;6.766;2023-02-25T07:48:59;100306.31;;;4.24;88.71
62051;BME280;48008;51.204;6.766;2023-02-25T07:51:26;100310.41;;;4.17;89.31
62051;BME280;48008;51.204;6.766;2023-02-25T07:53:55;100309.19;;;4.21;90.09
62051;BME280;48008;51.204;6.766;2023-02-25T07:56:25;100311.06;;;4.30;89.56
62051;BME280;48008;51.204;6.766;2023-02-25T07:58:52;100312.16;;;4.16;88.88
62051;BME280;48008;51.204;6.766;2023-02-25T08:01:23;100320.03;;;4.28;89.52
62051;BME280;48008;51.204;6.766;2023-02-25T08:03:53;100314.91;;;4.26;89.87
62051;BME280;48008;51.204;6.766;2023-02-25T08:06:20;100321.50;;;4.20;89.19
62051;BME280;48008;51.204;6.766;2023-02-25T08:08:48;100324.19;;;4.30;88.97
62051;BME280;48008;51.204;6.766;2023-02-25T08:11:18;100321.81;;;4.38;89.88
62051;BME280;48008;51.204;6.766;2023-02-25T08:13:45;100323.69;;;4.36;89.36
62051;BME280;48008;51.204;6.766;2023-02-25T08:16:14;100333.16;;;4.28;87.91
62051;BME280;48008;51.204;6.766;2023-02-25T08:18:42;100324.94;;;4.21;88.73
62051;BME280;48008;51.204;6.766;2023-02-25T08:21:10;100327.44;;;4.22;88.92
62051;BME280;48008;51.204;6.766;2023-02-25T08:23:37;100324.97;;;4.10;89.60
62051;BME280;48008;51.204;6.766;2023-02-25T08:26:04;100326.88;;;4.08;91.77
62051;BME280;48008;51.204;6.766;2023-02-25T08:28:32;100335.72;;;4.07;91.67
62051;BME280;48008;51.204;6.766;2023-02-25T08:31:02;100343.22;;;4.11;91.62
62051;BME280;48008;51.204;6.766;2023-02-25T08:33:29;100342.16;;;4.02;92.08
62051;BME280;48008;51.204;6.766;2023-02-25T08:36:05;100342.50;;;3.98;93.16
62051;BME280;48008;51.204;6.766;2023-02-25T08:38:32;100348.25;;;3.92;94.16
62051;BME280;48008;51.204;6.766;2023-02-25T08:40:59;100347.56;;;3.78;94.17
62051;BME280;48008;51.204;6.766;2023-02-25T08:43:26;100352.78;;;3.67;94.40
62051;BME280;48008;51.204;6.766;2023-02-25T08:45:52;100354.09;;;3.61;94.65
62051;BME280;48008;51.204;6.766;2023-02-25T08:48:21;100356.25;;;3.68;97.39
62051;BME280;48008;51.204;6.766;2023-02-25T08:50:48;100367.69;;;3.55;96.70
62051;BME280;48008;51.204;6.766;2023-02-25T08:53:14;100363.38;;;3.54;97.85
62051;BME280;48008;51.204;6.766;2023-02-25T08:55:41;100374.47;;;3.46;98.52
62051;BME280;48008;51.204;6.766;2023-02-25T08:58:08;100360.75;;;3.54;97.73
62051;BME280;48008;51.204;6.766;2023-02-25T09:00:35;100359.81;;;3.67;98.25
62051;BME280;48008;51.204;6.766;2023-02-25T09:03:02;100364.00;;;3.80;99.06
62051;BME280;48008;51.204;6.766;2023-02-25T09:05:29;100366.25;;;3.96;97.68
62051;BME280;48008;51.204;6.766;2023-02-25T09:07:55;100357.34;;;3.88;96.91
62051;BME280;48008;51.204;6.766;2023-02-25T09:10:24;100351.94;;;3.89;97.38
62051;BME280;48008;51.204;6.766;2023-02-25T09:12:51;100362.69;;;3.86;98.63
62051;BME280;48008;51.204;6.766;2023-02-25T09:15:19;100357.91;;;4.02;97.18
62051;BME280;48008;51.204;6.766;2023-02-25T09:17:47;100366.56;;;4.26;95.69
62051;BME280;48008;51.204;6.766;2023-02-25T09:20:14;100372.25;;;4.42;95.50
62051;BME280;48008;51.204;6.766;2023-02-25T09:22:43;100382.88;;;4.52;94.57
62051;BME280;48008;51.204;6.766;2023-02-25T09:25:10;100387.91;;;4.55;94.74
62051;BME280;48008;51.204;6.766;2023-02-25T09:27:37;100381.50;;;4.69;94.86
62051;BME280;48008;51.204;6.766;2023-02-25T09:30:03;100376.88;;;4.61;93.37
62051;BME280;48008;51.204;6.766;2023-02-25T09:32:30;100369.19;;;4.69;93.58
62051;BME280;48008;51.204;6.766;2023-02-25T09:34:57;100383.38;;;4.78;92.61
62051;BME280;48008;51.204;6.766;2023-02-25T09:37:33;100382.69;;;4.76;94.15
62051;BME280;48008;51.204;6.766;2023-02-25T09:40:00;100383.78;;;4.73;93.93
62051;BME280;48008;51.204;6.766;2023-02-25T09:42:40;100390.19;;;4.80;94.20
62051;BME280;48008;51.204;6.766;2023-02-25T09:45:14;100393.44;;;5.05;93.90
62051;BME280;48008;51.204;6.766;2023-02-25T09:47:48;100380.66;;;5.22;91.86
62051;BME280;48008;51.204;6.766;2023-02-25T09:50:22;100389.53;;;5.21;89.90
62051;BME280;48008;51.204;6.766;2023-02-25T09:53:19;100390.88;;;5.15;90.26
62051;BME280;48008;51.204;6.766;2023-02-25T09:55:51;100407.63;;;5.14;90.92
62051;BME280;48008;51.204;6.766;2023-02-25T09:58:40;100420.13;;;5.22;89.98
62051;BME280;48008;51.204;6.766;2023-02-25T10:03:57;100421.22;;;5.40;87.99
62051;BME280;48008;51.204;6.766;2023-02-25T10:06:45;100415.00;;;5.41;88.09
62051;BME280;48008;51.204;6.766;2023-02-25T10:09:24;100426.03;;;5.14;87.75
62051;BME280;48008;51.204;6.766;2023-02-25T10:12:20;100427.91;;;4.91;91.80
62051;BME280;48008;51.204;6.766;2023-02-25T10:26:34;100468.84;;;3.35;97.93
62051;BME280;48008;51.204;6.766;2023-02-25T10:29:05;100474.59;;;3.16;99.58
62051;BME280;48008;51.204;6.766;2023-02-25T10:31:33;100478.06;;;2.93;100.00
62051;BME280;48008;51.204;6.766;2023-02-25T10:34:17;100491.84;;;2.83;100.00
62051;BME280;48008;51.204;6.766;2023-02-25T10:36:52;100508.31;;;2.73;100.00
62051;BME280;48008;51.204;6.766;2023-02-25T10:39:20;100514.63;;;2.70;100.00
62051;BME280;48008;51.204;6.766;2023-02-25T10:41:47;100525.41;;;2.65;100.00
62051;BME280;48008;51.204;6.766;2023-02-25T10:44:14;100530.78;;;2.38;100.00
62051;BME280;48008;51.204;6.766;2023-02-25T10:46:49;100525.91;;;2.34;100.00
62051;BME280;48008;51.204;6.766;2023-02-25T10:49:23;100516.69;;;2.15;100.00
62051;BME280;48008;51.204;6.766;2023-02-25T10:51:55;100524.66;;;2.14;100.00
62051;BME280;48008;51.204;6.766;2023-02-25T10:54:26;100514.59;;;2.20;100.00
62051;BME280;48008;51.204;6.766;2023-02-25T10:56:54;100514.28;;;2.12;100.00
62051;BME280;48008;51.204;6.766;2023-02-25T10:59:25;100517.00;;;2.23;100.00
62051;BME280;48008;51.204;6.766;2023-02-25T11:01:57;100519.38;;;2.39;100.00
62051;BME280;48008;51.204;6.766;2023-02-25T11:04:33;100510.56;;;2.66;100.00
62051;BME280;48008;51.204;6.766;2023-02-25T11:10:13;100526.19;;;3.16;99.90
62051;BME280;48008;51.204;6.766;2023-02-25T11:12:45;100507.22;;;3.36;99.36
62051;BME280;48008;51.204;6.766;2023-02-25T11:18:14;100513.63;;;9.73;71.46
62051;BME280;48008;51.204;6.766;2023-02-25T11:20:55;100509.53;;;12.23;60.77
62051;BME280;48008;51.204;6.766;2023-02-25T11:23:29;100515.16;;;13.53;52.91
62051;BME280;48008;51.204;6.766;2023-02-25T11:25:58;100517.41;;;14.47;51.47
62051;BME280;48008;51.204;6.766;2023-02-25T11:28:33;100523.59;;;14.77;48.66
62051;BME280;48008;51.204;6.766;2023-02-25T11:31:06;100520.47;;;12.67;55.23
62051;BME280;48008;51.204;6.766;2023-02-25T11:33:38;100519.16;;;14.85;49.58
62051;BME280;48008;51.204;6.766;2023-02-25T11:36:06;100525.91;;;16.10;47.16
62051;BME280;48008;51.204;6.766;2023-02-25T11:38:35;100527.72;;;16.38;44.82
62051;BME280;48008;51.204;6.766;2023-02-25T11:41:03;100522.41;;;15.81;44.96
62051;BME280;48008;51.204;6.766;2023-02-25T11:43:40;100517.22;;;16.08;43.27
62051;BME280;48008;51.204;6.766;2023-02-25T11:46:16;100520.34;;;13.70;48.22
62051;BME280;48008;51.204;6.766;2023-02-25T11:49:01;100521.44;;;13.60;52.89
62051;BME280;48008;51.204;6.766;2023-02-25T11:51:43;100522.59;;;13.66;52.11
62051;BME280;48008;51.204;6.766;2023-02-25T11:54:42;100514.16;;;13.54;51.85
62051;BME280;48008;51.204;6.766;2023-02-25T11:57:26;100507.78;;;14.61;48.83
62051;BME280;48008;51.204;6.766;2023-02-25T12:00:27;100509.69;;;14.52;48.94
62051;BME280;48008;51.204;6.766;2023-02-25T12:06:32;100502.63;;;12.45;50.69
62051;BME280;48008;51.204;6.766;2023-02-25T12:12:24;100493.34;;;12.41;50.72
62051;BME280;48008;51.204;6.766;2023-02-25T12:18:25;100505.69;;;13.51;45.26
62051;BME280;48008;51.204;6.766;2023-02-25T12:27:01;100503.09;;;11.35;49.63
62051;BME280;48008;51.204;6.766;2023-02-25T12:35:48;100495.28;;;11.75;48.14
62051;BME280;48008;51.204;6.766;2023-02-25T12:38:38;100495.56;;;12.13;47.56
62051;BME280;48008;51.204;6.766;2023-02-25T12:41:29;100507.38;;;11.85;45.21
62051;BME280;48008;51.204;6.766;2023-02-25T12:44:24;100513.75;;;9.89;53.83
62051;BME280;48008;51.204;6.766;2023-02-25T12:47:10;100517.50;;;8.61;54.67
62051;BME280;48008;51.204;6.766;2023-02-25T12:58:42;100514.69;;;11.83;47.32
62051;BME280;48008;51.204;6.766;2023-02-25T13:07:28;100530.13;;;15.98;37.25
62051;BME280;48008;51.204;6.766;2023-02-25T13:21:31;100529.38;;;9.74;43.55
62051;BME280;48008;51.204;6.766;2023-02-25T13:25:12;100529.97;;;10.65;42.00
62051;BME280;48008;51.204;6.766;2023-02-25T13:27:21;100532.44;;;9.44;44.16
62051;BME280;48008;51.204;6.766;2023-02-25T13:30:15;100530.72;;;8.14;45.27
62051;BME280;48008;51.204;6.766;2023-02-25T13:33:04;100539.19;;;9.82;43.78
62051;BME280;48008;51.204;6.766;2023-02-25T13:35:46;100542.78;;;12.10;36.95
62051;BME280;48008;51.204;6.766;2023-02-25T13:41:10;100541.94;;;11.28;36.58
62051;BME280;48008;51.204;6.766;2023-02-25T13:49:47;100543.13;;;11.66;35.47
62051;BME280;48008;51.204;6.766;2023-02-25T14:00:57;100564.03;;;7.58;42.60
62051;BME280;48008;51.204;6.766;2023-02-25T14:03:52;100569.34;;;9.45;39.27
62051;BME280;48008;51.204;6.766;2023-02-25T14:13:19;100586.91;;;11.46;34.62
62051;BME280;48008;51.204;6.766;2023-02-25T14:15:46;100577.00;;;12.78;33.71
62051;BME280;48008;51.204;6.766;2023-02-25T14:18:43;100589.38;;;13.02;32.47
62051;BME280;48008;51.204;6.766;2023-02-25T14:30:19;100597.66;;;12.76;31.01
62051;BME280;48008;51.204;6.766;2023-02-25T14:39:40;100598.16;;;10.02;32.78
62051;BME280;48008;51.204;6.766;2023-02-25T14:42:11;100606.88;;;9.58;33.65
62051;BME280;48008;51.204;6.766;2023-02-25T14:47:35;100619.81;;;8.31;34.96
62051;BME280;48008;51.204;6.766;2023-02-25T14:50:12;100622.81;;;7.89;36.48
62051;BME280;48008;51.204;6.766;2023-02-25T14:53:52;100625.47;;;7.69;38.09
62051;BME280;48008;51.204;6.766;2023-02-25T14:56:13;100619.22;;;7.01;37.72
62051;BME280;48008;51.204;6.766;2023-02-25T15:01:54;100621.78;;;6.60;38.67
62051;BME280;48008;51.204;6.766;2023-02-25T15:04:53;100626.06;;;6.51;39.12
62051;BME280;48008;51.204;6.766;2023-02-25T15:07:39;100632.81;;;6.44;40.15
62051;BME280;48008;51.204;6.766;2023-02-25T15:16:02;100635.72;;;5.99;38.06
62051;BME280;48008;51.204;6.766;2023-02-25T15:21:43;100652.78;;;6.05;36.46
62051;BME280;48008;51.204;6.766;2023-02-25T15:30:10;100647.03;;;5.67;40.05
62051;BME280;48008;51.204;6.766;2023-02-25T15:38:18;100654.94;;;5.67;39.74
62051;BME280;48008;51.204;6.766;2023-02-25T15:40:50;100655.94;;;5.55;38.46
62051;BME280;48008;51.204;6.766;2023-02-25T15:49:03;100669.94;;;5.55;39.39
62051;BME280;48008;51.204;6.766;2023-02-25T15:51:43;100680.03;;;5.83;41.03